Terminal Aerodrome Forecast
Issued by NWS

Home | Current Version | Previous Version | Text Only | Print | Product List | Glossary On
Versions: 1 2 3 4 5 6 7 8 9 10 11 12 13 14
000
FTUS43 KIWX 211100
TAFSBN
TAF
KSBN 211120Z 2112/2212 30004KT P6SM SCT050 BKN090
     FM211400 29010KT P6SM BKN100
     FM211900 28013G18KT P6SM SKC
     FM220000 25006KT P6SM SKC=

USA.gov is the U.S. government's official web portal to all federal, state and local government web resources and services.